Ellen Mcallister — WDG3673 — position and weather

sailwx.info

Track history (hours):
 
Tides and Currents Weather Stations Pressure Air Temp Water Temp Dewpoint Dewpoint Depression Visibility Wind Speed Wind Dir Waves Ship Positions

Ellen Mcallister

Owner: McAllister Towing & Transportation Inc., Staten Island, NY. More information available from US FCC via Universal Licensing System and Coast Guard Vessel Documentation Center.

Last reported at 2016-Jul-25 19:32 UTC. Time now 2016-Jul-25 20:06 UTC.
Position N 40°39' W 074°04'.

Length 35 m; draft 5 m.

Type: Tug. MMSI: 366836590.

Date/timePositionNaut miles runAvg speedWind from/ knotsBaromVisibWave heightAir tempDewpointWater temp
2016-Jul-25 19:32N 40°39' W 074°04'0 0.0
2016-Jul-25 08:33N 40°39' W 074°04'0 0.0
2016-Jul-24 04:29N 40°38' W 074°03'0 0.0
2016-Jul-23 14:33N 40°38' W 074°03'2 1.8
2016-Jul-23 13:32N 40°40' W 074°04'0 0.1
2016-Jul-23 12:29N 40°40' W 074°04'1 0.1
2016-Jul-23 02:13N 40°39' W 074°05'2 2.6
2016-Jul-23 01:33N 40°38' W 074°03'2 0.5
2016-Jul-22 22:19N 40°40' W 074°04'4 1.4
2016-Jul-22 19:30N 40°40' W 074°09'4 0.3
2016-Jul-22 04:16N 40°40' W 074°04'5 7.3
2016-Jul-22 03:33N 40°43' W 073°59'1 0.7
2016-Jul-22 02:33N 40°42' W 073°59'5 1.4
2016-Jul-21 22:33N 40°38' W 074°03'5 0.6
2016-Jul-21 14:06N 40°38' W 074°10'0 0.0
2016-Jul-21 13:32N 40°38' W 074°10'5 0.4
2016-Jul-21 00:33N 40°39' W 074°04'3 0.1
2016-Jul-19 21:28N 40°39' W 074°08'4 2.9
2016-Jul-19 20:13N 40°38' W 074°04'0 0.1
2016-Jul-19 14:33N 40°38' W 074°03'1 0.2
2016-Jul-19 08:33N 40°39' W 074°04'0 0.0
2016-Jul-18 23:33N 40°39' W 074°05'1 0.3
2016-Jul-18 20:33N 40°39' W 074°04'1 0.4
2016-Jul-18 17:33N 40°38' W 074°03'1 0.2
2016-Jul-18 09:30N 40°39' W 074°03'2 1.7
2016-Jul-18 08:32N 40°40' W 074°05'0 0.0
2016-Jul-18 07:05N 40°40' W 074°05'0 0.0
2016-Jul-18 06:32N 40°40' W 074°05'0 0.0
2016-Jul-18 04:26N 40°40' W 074°05'1 0.6
2016-Jul-18 02:33N 40°40' W 074°04'1 1.1
2016-Jul-18 01:32N 40°40' W 074°05'0 0.0
2016-Jul-18 00:32N 40°40' W 074°05'0 0.0
2016-Jul-17 23:31N 40°40' W 074°05'0 0.0
2016-Jul-17 22:33N 40°40' W 074°05'0 0.0
2016-Jul-17 19:26N 40°40' W 074°05'1 1.3
2016-Jul-17 18:19N 40°39' W 074°03'1 0.1
2016-Jul-17 10:06N 40°39' W 074°04'1 1.0
2016-Jul-17 09:09N 40°38' W 074°04'2 0.2
2016-Jul-16 23:27N 40°40' W 074°04'1 1.2
2016-Jul-16 22:33N 40°40' W 074°05'2 0.5
2016-Jul-16 19:30N 40°40' W 074°03'1 1.0
2016-Jul-16 18:33N 40°40' W 074°04'5 4.6
2016-Jul-16 17:33N 40°43' W 073°59'2 2.2
2016-Jul-16 16:33N 40°41' W 074°01'3 1.2
2016-Jul-16 14:27N 40°40' W 074°04'0 0.1
2016-Jul-16 11:32N 40°40' W 074°04'1 1.5
2016-Jul-16 10:33N 40°38' W 074°03'2 0.8
2016-Jul-16 08:17N 40°40' W 074°04'0 0.0
2016-Jul-16 07:12N 40°40' W 074°04'1 1.1
2016-Jul-16 06:33N 40°40' W 074°04'1 0.2
2016-Jul-16 03:32N 40°40' W 074°04'0 0.0
2016-Jul-16 00:14N 40°40' W 074°04'5 7.1
2016-Jul-15 23:33N 40°43' W 073°59'0 0.3
2016-Jul-15 22:33N 40°43' W 073°59'  
Track history (hours):
 
Tides and Currents Weather Stations Pressure Air Temp Water Temp Dewpoint Dewpoint Depression Visibility Wind Speed Wind Dir Waves Ship Positions

Ellen Mcallister

Owner: McAllister Towing & Transportation Inc., Staten Island, NY. More information available from US FCC via Universal Licensing System and Coast Guard Vessel Documentation Center.

Last reported at 2016-Jul-25 19:32 UTC. Time now 2016-Jul-25 20:06 UTC.
Position N 40°39' W 074°04'.

Length 35 m; draft 5 m.

Type: Tug. MMSI: 366836590.

Date/timePositionNaut miles runAvg speedWind from/ knotsBaromVisibWave heightAir tempDewpointWater temp
2016-Jul-25 19:32N 40°39' W 074°04'0 0.0
2016-Jul-25 08:33N 40°39' W 074°04'0 0.0
2016-Jul-24 04:29N 40°38' W 074°03'0 0.0
2016-Jul-23 14:33N 40°38' W 074°03'2 1.8
2016-Jul-23 13:32N 40°40' W 074°04'0 0.1
2016-Jul-23 12:29N 40°40' W 074°04'1 0.1
2016-Jul-23 02:13N 40°39' W 074°05'2 2.6
2016-Jul-23 01:33N 40°38' W 074°03'2 0.5
2016-Jul-22 22:19N 40°40' W 074°04'4 1.4
2016-Jul-22 19:30N 40°40' W 074°09'4 0.3
2016-Jul-22 04:16N 40°40' W 074°04'5 7.3
2016-Jul-22 03:33N 40°43' W 073°59'1 0.7
2016-Jul-22 02:33N 40°42' W 073°59'5 1.4
2016-Jul-21 22:33N 40°38' W 074°03'5 0.6
2016-Jul-21 14:06N 40°38' W 074°10'0 0.0
2016-Jul-21 13:32N 40°38' W 074°10'5 0.4
2016-Jul-21 00:33N 40°39' W 074°04'3 0.1
2016-Jul-19 21:28N 40°39' W 074°08'4 2.9
2016-Jul-19 20:13N 40°38' W 074°04'0 0.1
2016-Jul-19 14:33N 40°38' W 074°03'1 0.2
2016-Jul-19 08:33N 40°39' W 074°04'0 0.0
2016-Jul-18 23:33N 40°39' W 074°05'1 0.3
2016-Jul-18 20:33N 40°39' W 074°04'1 0.4
2016-Jul-18 17:33N 40°38' W 074°03'1 0.2
2016-Jul-18 09:30N 40°39' W 074°03'2 1.7
2016-Jul-18 08:32N 40°40' W 074°05'0 0.0
2016-Jul-18 07:05N 40°40' W 074°05'0 0.0
2016-Jul-18 06:32N 40°40' W 074°05'0 0.0
2016-Jul-18 04:26N 40°40' W 074°05'1 0.6
2016-Jul-18 02:33N 40°40' W 074°04'1 1.1
2016-Jul-18 01:32N 40°40' W 074°05'0 0.0
2016-Jul-18 00:32N 40°40' W 074°05'0 0.0
2016-Jul-17 23:31N 40°40' W 074°05'0 0.0
2016-Jul-17 22:33N 40°40' W 074°05'0 0.0
2016-Jul-17 19:26N 40°40' W 074°05'1 1.3
2016-Jul-17 18:19N 40°39' W 074°03'1 0.1
2016-Jul-17 10:06N 40°39' W 074°04'1 1.0
2016-Jul-17 09:09N 40°38' W 074°04'2 0.2
2016-Jul-16 23:27N 40°40' W 074°04'1 1.2
2016-Jul-16 22:33N 40°40' W 074°05'2 0.5
2016-Jul-16 19:30N 40°40' W 074°03'1 1.0
2016-Jul-16 18:33N 40°40' W 074°04'5 4.6
2016-Jul-16 17:33N 40°43' W 073°59'2 2.2
2016-Jul-16 16:33N 40°41' W 074°01'3 1.2
2016-Jul-16 14:27N 40°40' W 074°04'0 0.1
2016-Jul-16 11:32N 40°40' W 074°04'1 1.5
2016-Jul-16 10:33N 40°38' W 074°03'2 0.8
2016-Jul-16 08:17N 40°40' W 074°04'0 0.0
2016-Jul-16 07:12N 40°40' W 074°04'1 1.1
2016-Jul-16 06:33N 40°40' W 074°04'1 0.2
2016-Jul-16 03:32N 40°40' W 074°04'0 0.0
2016-Jul-16 00:14N 40°40' W 074°04'5 7.1
2016-Jul-15 23:33N 40°43' W 073°59'0 0.3
2016-Jul-15 22:33N 40°43' W 073°59'  

Dump ship's entire track history